sensor_id;sensor_type;location;lat;lon;timestamp;temperature;humidity
42979;DHT22;28616;44.746;19.678;2022-08-21T00:02:24;18.60;99.90
42979;DHT22;28616;44.746;19.678;2022-08-21T00:04:51;18.60;99.90
42979;DHT22;28616;44.746;19.678;2022-08-21T00:07:18;18.60;99.90
42979;DHT22;28616;44.746;19.678;2022-08-21T00:09:44;18.60;99.90
42979;DHT22;28616;44.746;19.678;2022-08-21T00:12:10;18.70;99.90
42979;DHT22;28616;44.746;19.678;2022-08-21T00:14:37;18.60;99.90
42979;DHT22;28616;44.746;19.678;2022-08-21T00:17:04;18.80;99.90
42979;DHT22;28616;44.746;19.678;2022-08-21T00:19:30;18.80;99.90
42979;DHT22;28616;44.746;19.678;2022-08-21T00:21:56;18.80;99.90
42979;DHT22;28616;44.746;19.678;2022-08-21T00:24:23;18.80;99.90
42979;DHT22;28616;44.746;19.678;2022-08-21T00:26:50;18.90;99.90
42979;DHT22;28616;44.746;19.678;2022-08-21T00:29:17;18.80;99.90
42979;DHT22;28616;44.746;19.678;2022-08-21T00:31:43;18.90;99.90
42979;DHT22;28616;44.746;19.678;2022-08-21T00:34:10;18.90;99.90
42979;DHT22;28616;44.746;19.678;2022-08-21T00:36:36;18.90;99.90
42979;DHT22;28616;44.746;19.678;2022-08-21T00:39:04;19.00;99.90
42979;DHT22;28616;44.746;19.678;2022-08-21T00:41:30;19.10;99.90
42979;DHT22;28616;44.746;19.678;2022-08-21T00:43:56;19.20;99.90
42979;DHT22;28616;44.746;19.678;2022-08-21T00:46:23;19.20;99.90
42979;DHT22;28616;44.746;19.678;2022-08-21T00:48:48;19.30;99.90
42979;DHT22;28616;44.746;19.678;2022-08-21T00:51:19;19.30;99.90
42979;DHT22;28616;44.746;19.678;2022-08-21T00:53:50;19.40;99.90
42979;DHT22;28616;44.746;19.678;2022-08-21T00:56:19;19.40;99.90
42979;DHT22;28616;44.746;19.678;2022-08-21T00:58:45;19.50;99.90
42979;DHT22;28616;44.746;19.678;2022-08-21T01:01:11;19.60;99.90
42979;DHT22;28616;44.746;19.678;2022-08-21T01:03:38;19.50;99.90
42979;DHT22;28616;44.746;19.678;2022-08-21T01:06:05;19.50;99.90
42979;DHT22;28616;44.746;19.678;2022-08-21T01:08:32;19.60;99.90
42979;DHT22;28616;44.746;19.678;2022-08-21T01:10:58;19.60;99.90
42979;DHT22;28616;44.746;19.678;2022-08-21T01:13:26;19.60;99.90
42979;DHT22;28616;44.746;19.678;2022-08-21T01:15:55;19.60;99.90
42979;DHT22;28616;44.746;19.678;2022-08-21T01:18:22;19.60;99.90
42979;DHT22;28616;44.746;19.678;2022-08-21T01:21:15;19.70;99.90
42979;DHT22;28616;44.746;19.678;2022-08-21T01:23:46;19.70;99.90
42979;DHT22;28616;44.746;19.678;2022-08-21T01:26:14;19.70;99.90
42979;DHT22;28616;44.746;19.678;2022-08-21T01:29:07;19.70;99.90
42979;DHT22;28616;44.746;19.678;2022-08-21T01:31:35;19.70;99.90
42979;DHT22;28616;44.746;19.678;2022-08-21T01:34:03;19.70;99.90
42979;DHT22;28616;44.746;19.678;2022-08-21T01:36:29;19.70;99.90
42979;DHT22;28616;44.746;19.678;2022-08-21T01:38:55;19.70;99.90
42979;DHT22;28616;44.746;19.678;2022-08-21T01:41:21;19.70;99.90
42979;DHT22;28616;44.746;19.678;2022-08-21T01:43:47;19.70;99.90
42979;DHT22;28616;44.746;19.678;2022-08-21T01:46:13;19.70;99.90
42979;DHT22;28616;44.746;19.678;2022-08-21T01:48:39;19.70;99.90
42979;DHT22;28616;44.746;19.678;2022-08-21T01:51:05;19.70;99.90
42979;DHT22;28616;44.746;19.678;2022-08-21T01:53:32;19.70;99.90
42979;DHT22;28616;44.746;19.678;2022-08-21T01:56:01;19.70;99.90
42979;DHT22;28616;44.746;19.678;2022-08-21T01:58:27;19.70;99.90
42979;DHT22;28616;44.746;19.678;2022-08-21T02:00:53;19.70;99.90
42979;DHT22;28616;44.746;19.678;2022-08-21T02:03:19;19.70;99.90
42979;DHT22;28616;44.746;19.678;2022-08-21T02:05:45;19.70;99.90
42979;DHT22;28616;44.746;19.678;2022-08-21T02:08:11;19.70;99.90
42979;DHT22;28616;44.746;19.678;2022-08-21T02:10:37;19.70;99.90
42979;DHT22;28616;44.746;19.678;2022-08-21T02:13:03;19.70;99.90
42979;DHT22;28616;44.746;19.678;2022-08-21T02:15:29;19.70;99.90
42979;DHT22;28616;44.746;19.678;2022-08-21T02:18:00;19.70;99.90
42979;DHT22;28616;44.746;19.678;2022-08-21T02:20:35;19.70;99.90
42979;DHT22;28616;44.746;19.678;2022-08-21T02:23:03;19.70;99.90
42979;DHT22;28616;44.746;19.678;2022-08-21T02:25:30;19.70;99.90
42979;DHT22;28616;44.746;19.678;2022-08-21T02:27:57;19.70;99.90
42979;DHT22;28616;44.746;19.678;2022-08-21T02:30:30;19.70;99.90
42979;DHT22;28616;44.746;19.678;2022-08-21T02:32:57;19.70;99.90
42979;DHT22;28616;44.746;19.678;2022-08-21T02:35:23;19.60;99.90
42979;DHT22;28616;44.746;19.678;2022-08-21T02:37:55;19.70;99.90
42979;DHT22;28616;44.746;19.678;2022-08-21T02:40:24;19.70;99.90
42979;DHT22;28616;44.746;19.678;2022-08-21T02:42:52;19.60;99.90
42979;DHT22;28616;44.746;19.678;2022-08-21T02:45:18;19.70;99.90
42979;DHT22;28616;44.746;19.678;2022-08-21T02:47:50;19.70;99.90
42979;DHT22;28616;44.746;19.678;2022-08-21T02:50:25;19.70;99.90
42979;DHT22;28616;44.746;19.678;2022-08-21T02:52:52;19.70;99.90
42979;DHT22;28616;44.746;19.678;2022-08-21T02:55:23;19.70;99.90
42979;DHT22;28616;44.746;19.678;2022-08-21T02:57:49;19.70;99.90
42979;DHT22;28616;44.746;19.678;2022-08-21T03:00:15;19.80;99.90
42979;DHT22;28616;44.746;19.678;2022-08-21T03:02:41;19.70;99.90
42979;DHT22;28616;44.746;19.678;2022-08-21T03:05:09;19.80;99.90
42979;DHT22;28616;44.746;19.678;2022-08-21T03:07:37;19.80;99.90
42979;DHT22;28616;44.746;19.678;2022-08-21T03:10:04;19.80;99.90
42979;DHT22;28616;44.746;19.678;2022-08-21T03:12:30;19.80;99.90
42979;DHT22;28616;44.746;19.678;2022-08-21T03:14:55;19.80;99.90
42979;DHT22;28616;44.746;19.678;2022-08-21T03:17:23;19.80;99.90
42979;DHT22;28616;44.746;19.678;2022-08-21T03:19:49;19.80;99.90
42979;DHT22;28616;44.746;19.678;2022-08-21T03:22:14;19.80;99.90
42979;DHT22;28616;44.746;19.678;2022-08-21T03:24:40;19.90;99.90
42979;DHT22;28616;44.746;19.678;2022-08-21T03:27:06;19.90;99.90
42979;DHT22;28616;44.746;19.678;2022-08-21T03:29:32;19.80;99.90
42979;DHT22;28616;44.746;19.678;2022-08-21T03:31:57;19.90;99.90
42979;DHT22;28616;44.746;19.678;2022-08-21T03:34:23;19.90;99.90
42979;DHT22;28616;44.746;19.678;2022-08-21T03:36:49;19.90;99.90
42979;DHT22;28616;44.746;19.678;2022-08-21T03:39:16;19.90;99.90
42979;DHT22;28616;44.746;19.678;2022-08-21T03:41:42;19.90;99.90
42979;DHT22;28616;44.746;19.678;2022-08-21T03:44:08;19.90;99.90
42979;DHT22;28616;44.746;19.678;2022-08-21T03:46:34;19.90;99.90
42979;DHT22;28616;44.746;19.678;2022-08-21T03:49:00;19.90;99.90
42979;DHT22;28616;44.746;19.678;2022-08-21T03:51:26;19.90;99.90
42979;DHT22;28616;44.746;19.678;2022-08-21T03:53:52;19.90;99.90
42979;DHT22;28616;44.746;19.678;2022-08-21T03:56:18;19.90;99.90
42979;DHT22;28616;44.746;19.678;2022-08-21T03:58:43;19.90;99.90
42979;DHT22;28616;44.746;19.678;2022-08-21T04:01:10;20.00;99.90
42979;DHT22;28616;44.746;19.678;2022-08-21T04:03:37;20.00;99.90
42979;DHT22;28616;44.746;19.678;2022-08-21T04:06:04;20.00;99.90
42979;DHT22;28616;44.746;19.678;2022-08-21T04:08:30;20.00;99.90
42979;DHT22;28616;44.746;19.678;2022-08-21T04:10:57;20.00;99.90
42979;DHT22;28616;44.746;19.678;2022-08-21T04:13:23;20.00;99.90
42979;DHT22;28616;44.746;19.678;2022-08-21T04:15:49;20.00;99.90
42979;DHT22;28616;44.746;19.678;2022-08-21T04:18:16;20.00;99.90
42979;DHT22;28616;44.746;19.678;2022-08-21T04:20:43;20.00;99.90
42979;DHT22;28616;44.746;19.678;2022-08-21T04:23:10;20.00;99.90
42979;DHT22;28616;44.746;19.678;2022-08-21T04:25:36;20.00;99.90
42979;DHT22;28616;44.746;19.678;2022-08-21T04:28:03;20.00;99.90
42979;DHT22;28616;44.746;19.678;2022-08-21T04:30:29;20.10;99.90
42979;DHT22;28616;44.746;19.678;2022-08-21T04:32:56;20.10;99.90
42979;DHT22;28616;44.746;19.678;2022-08-21T04:35:23;20.10;99.90
42979;DHT22;28616;44.746;19.678;2022-08-21T04:37:50;20.10;99.90
42979;DHT22;28616;44.746;19.678;2022-08-21T04:40:18;20.10;99.90
42979;DHT22;28616;44.746;19.678;2022-08-21T04:43:00;20.10;99.90
42979;DHT22;28616;44.746;19.678;2022-08-21T04:45:41;20.20;99.90
42979;DHT22;28616;44.746;19.678;2022-08-21T04:48:10;20.20;99.90
42979;DHT22;28616;44.746;19.678;2022-08-21T04:50:44;20.20;99.90
42979;DHT22;28616;44.746;19.678;2022-08-21T04:53:16;20.20;99.90
42979;DHT22;28616;44.746;19.678;2022-08-21T04:55:43;20.30;99.90
42979;DHT22;28616;44.746;19.678;2022-08-21T04:58:12;20.30;99.90
42979;DHT22;28616;44.746;19.678;2022-08-21T05:00:38;20.30;99.90
42979;DHT22;28616;44.746;19.678;2022-08-21T05:03:05;20.20;99.90
42979;DHT22;28616;44.746;19.678;2022-08-21T05:05:32;20.20;99.90
42979;DHT22;28616;44.746;19.678;2022-08-21T05:07:59;20.20;99.90
42979;DHT22;28616;44.746;19.678;2022-08-21T05:10:26;20.10;99.90
42979;DHT22;28616;44.746;19.678;2022-08-21T05:12:53;20.10;99.90
42979;DHT22;28616;44.746;19.678;2022-08-21T05:15:18;20.10;99.90
42979;DHT22;28616;44.746;19.678;2022-08-21T05:17:44;20.10;99.90
42979;DHT22;28616;44.746;19.678;2022-08-21T05:20:12;20.10;99.90
42979;DHT22;28616;44.746;19.678;2022-08-21T05:22:38;20.10;99.90
42979;DHT22;28616;44.746;19.678;2022-08-21T05:25:05;20.10;99.90
42979;DHT22;28616;44.746;19.678;2022-08-21T05:27:31;20.00;99.90
42979;DHT22;28616;44.746;19.678;2022-08-21T05:29:57;19.90;99.90
42979;DHT22;28616;44.746;19.678;2022-08-21T05:32:23;19.90;99.90
42979;DHT22;28616;44.746;19.678;2022-08-21T05:34:49;19.90;99.90
42979;DHT22;28616;44.746;19.678;2022-08-21T05:37:16;19.90;99.90
42979;DHT22;28616;44.746;19.678;2022-08-21T05:39:41;19.90;99.90
42979;DHT22;28616;44.746;19.678;2022-08-21T05:42:08;19.90;99.90
42979;DHT22;28616;44.746;19.678;2022-08-21T05:44:33;19.80;99.90
42979;DHT22;28616;44.746;19.678;2022-08-21T05:47:07;19.80;99.90
42979;DHT22;28616;44.746;19.678;2022-08-21T05:49:34;19.80;99.90
42979;DHT22;28616;44.746;19.678;2022-08-21T05:52:00;19.70;99.90
42979;DHT22;28616;44.746;19.678;2022-08-21T05:54:26;19.70;99.90
42979;DHT22;28616;44.746;19.678;2022-08-21T05:56:52;19.60;99.90
42979;DHT22;28616;44.746;19.678;2022-08-21T05:59:18;19.50;99.90
42979;DHT22;28616;44.746;19.678;2022-08-21T06:01:44;19.40;99.90
42979;DHT22;28616;44.746;19.678;2022-08-21T06:04:11;19.40;99.90
42979;DHT22;28616;44.746;19.678;2022-08-21T06:06:37;19.40;99.90
42979;DHT22;28616;44.746;19.678;2022-08-21T06:09:03;19.30;99.90
42979;DHT22;28616;44.746;19.678;2022-08-21T06:11:30;19.20;99.90
42979;DHT22;28616;44.746;19.678;2022-08-21T06:13:56;19.10;99.90
42979;DHT22;28616;44.746;19.678;2022-08-21T06:16:22;19.10;99.90
42979;DHT22;28616;44.746;19.678;2022-08-21T06:18:49;19.10;99.90
42979;DHT22;28616;44.746;19.678;2022-08-21T06:21:15;19.10;99.90
42979;DHT22;28616;44.746;19.678;2022-08-21T06:23:41;19.00;99.90
42979;DHT22;28616;44.746;19.678;2022-08-21T06:26:08;19.00;99.90
42979;DHT22;28616;44.746;19.678;2022-08-21T06:28:35;19.10;99.90
42979;DHT22;28616;44.746;19.678;2022-08-21T06:31:01;19.00;99.90
42979;DHT22;28616;44.746;19.678;2022-08-21T06:33:27;19.00;99.90
42979;DHT22;28616;44.746;19.678;2022-08-21T06:35:53;19.00;99.90
42979;DHT22;28616;44.746;19.678;2022-08-21T06:38:18;19.00;99.90
42979;DHT22;28616;44.746;19.678;2022-08-21T06:40:45;19.00;99.90
42979;DHT22;28616;44.746;19.678;2022-08-21T06:43:13;19.20;99.90
42979;DHT22;28616;44.746;19.678;2022-08-21T06:45:39;19.40;99.90
42979;DHT22;28616;44.746;19.678;2022-08-21T06:48:05;19.60;99.90
42979;DHT22;28616;44.746;19.678;2022-08-21T06:50:35;19.90;99.90
42979;DHT22;28616;44.746;19.678;2022-08-21T06:53:05;20.10;99.90
42979;DHT22;28616;44.746;19.678;2022-08-21T06:55:32;20.40;99.90
42979;DHT22;28616;44.746;19.678;2022-08-21T06:57:58;20.50;99.90
42979;DHT22;28616;44.746;19.678;2022-08-21T07:00:24;20.20;99.90
42979;DHT22;28616;44.746;19.678;2022-08-21T07:02:51;20.00;99.90
42979;DHT22;28616;44.746;19.678;2022-08-21T07:05:17;19.80;99.90
42979;DHT22;28616;44.746;19.678;2022-08-21T07:07:43;19.60;99.90
42979;DHT22;28616;44.746;19.678;2022-08-21T07:10:09;19.50;99.90
42979;DHT22;28616;44.746;19.678;2022-08-21T07:12:35;19.40;99.90
42979;DHT22;28616;44.746;19.678;2022-08-21T07:15:01;19.40;99.90
42979;DHT22;28616;44.746;19.678;2022-08-21T07:17:26;19.40;99.90
42979;DHT22;28616;44.746;19.678;2022-08-21T07:19:52;19.40;99.90
42979;DHT22;28616;44.746;19.678;2022-08-21T07:22:21;19.40;99.90
42979;DHT22;28616;44.746;19.678;2022-08-21T07:24:47;19.60;99.90
42979;DHT22;28616;44.746;19.678;2022-08-21T07:29:39;20.00;99.90
42979;DHT22;28616;44.746;19.678;2022-08-21T07:32:05;20.20;99.90
42979;DHT22;28616;44.746;19.678;2022-08-21T07:34:31;20.50;99.90
42979;DHT22;28616;44.746;19.678;2022-08-21T07:36:57;20.60;99.90
42979;DHT22;28616;44.746;19.678;2022-08-21T07:39:24;20.70;99.90
42979;DHT22;28616;44.746;19.678;2022-08-21T07:41:50;20.60;99.90
42979;DHT22;28616;44.746;19.678;2022-08-21T07:44:16;20.60;99.90
42979;DHT22;28616;44.746;19.678;2022-08-21T07:46:42;20.60;99.90
42979;DHT22;28616;44.746;19.678;2022-08-21T07:49:08;20.70;99.90
42979;DHT22;28616;44.746;19.678;2022-08-21T07:51:33;20.70;99.90
42979;DHT22;28616;44.746;19.678;2022-08-21T07:53:59;20.60;99.90
42979;DHT22;28616;44.746;19.678;2022-08-21T07:56:26;20.50;99.90
42979;DHT22;28616;44.746;19.678;2022-08-21T07:58:53;20.70;99.90
42979;DHT22;28616;44.746;19.678;2022-08-21T08:01:19;20.80;99.90
42979;DHT22;28616;44.746;19.678;2022-08-21T08:03:45;20.70;99.90
42979;DHT22;28616;44.746;19.678;2022-08-21T08:06:16;20.70;99.90
42979;DHT22;28616;44.746;19.678;2022-08-21T08:08:44;20.80;99.90
42979;DHT22;28616;44.746;19.678;2022-08-21T08:11:11;20.60;99.90
42979;DHT22;28616;44.746;19.678;2022-08-21T08:13:41;20.50;99.90
42979;DHT22;28616;44.746;19.678;2022-08-21T08:16:08;20.40;99.90
42979;DHT22;28616;44.746;19.678;2022-08-21T08:18:34;20.50;99.90
42979;DHT22;28616;44.746;19.678;2022-08-21T08:20:59;20.50;99.90
42979;DHT22;28616;44.746;19.678;2022-08-21T08:23:25;20.60;99.90
42979;DHT22;28616;44.746;19.678;2022-08-21T08:25:52;20.70;99.90
42979;DHT22;28616;44.746;19.678;2022-08-21T08:28:18;20.70;99.90
42979;DHT22;28616;44.746;19.678;2022-08-21T08:30:45;20.70;99.90
42979;DHT22;28616;44.746;19.678;2022-08-21T08:33:12;20.70;99.90
42979;DHT22;28616;44.746;19.678;2022-08-21T08:35:38;20.70;99.90
42979;DHT22;28616;44.746;19.678;2022-08-21T08:38:05;20.60;99.90
42979;DHT22;28616;44.746;19.678;2022-08-21T08:40:44;20.60;99.90
42979;DHT22;28616;44.746;19.678;2022-08-21T08:43:12;20.60;99.90
42979;DHT22;28616;44.746;19.678;2022-08-21T08:45:42;20.60;99.90
42979;DHT22;28616;44.746;19.678;2022-08-21T08:48:12;20.60;99.90
42979;DHT22;28616;44.746;19.678;2022-08-21T08:55:36;20.90;99.90
42979;DHT22;28616;44.746;19.678;2022-08-21T08:58:02;20.90;99.90
42979;DHT22;28616;44.746;19.678;2022-08-21T09:00:30;21.00;99.90
42979;DHT22;28616;44.746;19.678;2022-08-21T09:02:57;20.90;99.90
42979;DHT22;28616;44.746;19.678;2022-08-21T09:08:20;21.00;99.90
42979;DHT22;28616;44.746;19.678;2022-08-21T09:11:12;21.00;99.90
42979;DHT22;28616;44.746;19.678;2022-08-21T09:13:55;21.00;99.90
42979;DHT22;28616;44.746;19.678;2022-08-21T09:27:09;20.90;99.90
42979;DHT22;28616;44.746;19.678;2022-08-21T09:29:38;21.00;99.90
42979;DHT22;28616;44.746;19.678;2022-08-21T09:34:54;20.90;99.90
42979;DHT22;28616;44.746;19.678;2022-08-21T09:37:20;20.90;99.90
42979;DHT22;28616;44.746;19.678;2022-08-21T09:39:45;21.00;99.90
42979;DHT22;28616;44.746;19.678;2022-08-21T09:42:11;21.00;99.90
42979;DHT22;28616;44.746;19.678;2022-08-21T09:44:46;21.00;99.90
42979;DHT22;28616;44.746;19.678;2022-08-21T09:47:12;20.90;99.90
42979;DHT22;28616;44.746;19.678;2022-08-21T09:49:41;21.00;99.90
42979;DHT22;28616;44.746;19.678;2022-08-21T09:52:19;21.10;99.90
42979;DHT22;28616;44.746;19.678;2022-08-21T09:54:53;20.80;99.90
42979;DHT22;28616;44.746;19.678;2022-08-21T09:57:26;20.80;99.90
42979;DHT22;28616;44.746;19.678;2022-08-21T10:00:25;20.90;99.90
42979;DHT22;28616;44.746;19.678;2022-08-21T10:02:51;21.00;99.90
42979;DHT22;28616;44.746;19.678;2022-08-21T10:05:24;21.00;99.90
42979;DHT22;28616;44.746;19.678;2022-08-21T10:07:50;21.10;99.90
42979;DHT22;28616;44.746;19.678;2022-08-21T10:10:25;21.50;99.90
42979;DHT22;28616;44.746;19.678;2022-08-21T10:13:18;21.50;99.90
42979;DHT22;28616;44.746;19.678;2022-08-21T10:26:59;21.00;99.90
42979;DHT22;28616;44.746;19.678;2022-08-21T10:38:10;21.00;99.90
42979;DHT22;28616;44.746;19.678;2022-08-21T10:49:09;21.00;99.90
42979;DHT22;28616;44.746;19.678;2022-08-21T10:51:42;21.10;99.90
42979;DHT22;28616;44.746;19.678;2022-08-21T10:59:38;20.80;99.90
42979;DHT22;28616;44.746;19.678;2022-08-21T11:02:29;21.00;99.90
42979;DHT22;28616;44.746;19.678;2022-08-21T11:05:01;20.90;99.90
42979;DHT22;28616;44.746;19.678;2022-08-21T11:07:46;20.90;99.90
42979;DHT22;28616;44.746;19.678;2022-08-21T11:10:23;21.10;99.90
42979;DHT22;28616;44.746;19.678;2022-08-21T11:13:00;21.10;99.90
42979;DHT22;28616;44.746;19.678;2022-08-21T11:15:41;21.10;99.90
42979;DHT22;28616;44.746;19.678;2022-08-21T11:18:22;21.10;99.90
42979;DHT22;28616;44.746;19.678;2022-08-21T11:23:44;21.20;99.90
42979;DHT22;28616;44.746;19.678;2022-08-21T11:37:17;21.20;99.90
42979;DHT22;28616;44.746;19.678;2022-08-21T11:40:05;21.10;99.90
42979;DHT22;28616;44.746;19.678;2022-08-21T11:43:17;21.20;99.90
42979;DHT22;28616;44.746;19.678;2022-08-21T11:45:49;21.20;99.90
42979;DHT22;28616;44.746;19.678;2022-08-21T11:50:44;21.20;99.90
42979;DHT22;28616;44.746;19.678;2022-08-21T11:53:24;21.10;99.90
42979;DHT22;28616;44.746;19.678;2022-08-21T11:58:41;21.20;99.90
42979;DHT22;28616;44.746;19.678;2022-08-21T12:01:19;21.10;99.90
42979;DHT22;28616;44.746;19.678;2022-08-21T12:03:59;20.90;99.90
42979;DHT22;28616;44.746;19.678;2022-08-21T12:06:52;20.90;99.90
42979;DHT22;28616;44.746;19.678;2022-08-21T12:12:01;20.90;99.90
42979;DHT22;28616;44.746;19.678;2022-08-21T12:17:08;20.60;99.90
42979;DHT22;28616;44.746;19.678;2022-08-21T12:19:35;20.50;99.90
42979;DHT22;28616;44.746;19.678;2022-08-21T12:26:58;20.40;99.90
42979;DHT22;28616;44.746;19.678;2022-08-21T12:29:33;20.40;99.90
42979;DHT22;28616;44.746;19.678;2022-08-21T12:34:39;20.40;99.90
42979;DHT22;28616;44.746;19.678;2022-08-21T12:39:47;20.30;99.90
42979;DHT22;28616;44.746;19.678;2022-08-21T12:42:18;20.20;99.90
42979;DHT22;28616;44.746;19.678;2022-08-21T12:44:59;20.20;99.90
42979;DHT22;28616;44.746;19.678;2022-08-21T12:50:05;20.20;99.90
42979;DHT22;28616;44.746;19.678;2022-08-21T12:52:36;20.20;99.90
42979;DHT22;28616;44.746;19.678;2022-08-21T12:55:06;20.20;99.90
42979;DHT22;28616;44.746;19.678;2022-08-21T12:57:36;20.20;99.90
42979;DHT22;28616;44.746;19.678;2022-08-21T13:00:06;20.20;99.90
42979;DHT22;28616;44.746;19.678;2022-08-21T13:02:42;20.20;99.90
42979;DHT22;28616;44.746;19.678;2022-08-21T13:05:12;20.30;99.90
42979;DHT22;28616;44.746;19.678;2022-08-21T13:07:44;20.40;99.90
42979;DHT22;28616;44.746;19.678;2022-08-21T13:10:17;20.50;99.90
42979;DHT22;28616;44.746;19.678;2022-08-21T13:12:44;20.60;99.90
42979;DHT22;28616;44.746;19.678;2022-08-21T13:15:11;20.60;99.90
42979;DHT22;28616;44.746;19.678;2022-08-21T13:17:41;20.60;99.90
42979;DHT22;28616;44.746;19.678;2022-08-21T13:20:19;20.70;99.90
42979;DHT22;28616;44.746;19.678;2022-08-21T13:22:45;20.90;99.90
42979;DHT22;28616;44.746;19.678;2022-08-21T13:25:14;20.90;99.90
42979;DHT22;28616;44.746;19.678;2022-08-21T13:27:44;20.90;99.90
42979;DHT22;28616;44.746;19.678;2022-08-21T13:30:18;20.90;99.90
42979;DHT22;28616;44.746;19.678;2022-08-21T13:32:47;20.90;99.90
42979;DHT22;28616;44.746;19.678;2022-08-21T13:35:24;20.80;99.90
42979;DHT22;28616;44.746;19.678;2022-08-21T13:37:51;20.90;99.90
42979;DHT22;28616;44.746;19.678;2022-08-21T13:40:26;20.80;99.90
42979;DHT22;28616;44.746;19.678;2022-08-21T13:42:54;20.80;99.90
42979;DHT22;28616;44.746;19.678;2022-08-21T13:45:32;20.80;99.90
42979;DHT22;28616;44.746;19.678;2022-08-21T13:48:00;20.90;99.90
42979;DHT22;28616;44.746;19.678;2022-08-21T13:50:27;21.00;99.90
42979;DHT22;28616;44.746;19.678;2022-08-21T13:52:57;21.00;99.90
42979;DHT22;28616;44.746;19.678;2022-08-21T13:55:24;21.20;99.90
42979;DHT22;28616;44.746;19.678;2022-08-21T13:58:00;21.30;99.90
42979;DHT22;28616;44.746;19.678;2022-08-21T14:00:29;21.50;99.90
42979;DHT22;28616;44.746;19.678;2022-08-21T14:03:04;21.50;99.90
42979;DHT22;28616;44.746;19.678;2022-08-21T14:05:34;21.30;99.90
42979;DHT22;28616;44.746;19.678;2022-08-21T14:10:36;21.30;99.90
42979;DHT22;28616;44.746;19.678;2022-08-21T14:13:06;21.20;99.90
42979;DHT22;28616;44.746;19.678;2022-08-21T14:15:34;21.20;99.90
42979;DHT22;28616;44.746;19.678;2022-08-21T14:18:29;21.30;99.90
42979;DHT22;28616;44.746;19.678;2022-08-21T14:21:07;21.40;99.90
42979;DHT22;28616;44.746;19.678;2022-08-21T14:23:33;21.40;99.90
42979;DHT22;28616;44.746;19.678;2022-08-21T14:26:01;21.50;99.90
42979;DHT22;28616;44.746;19.678;2022-08-21T14:28:33;21.50;99.90
42979;DHT22;28616;44.746;19.678;2022-08-21T14:31:32;21.60;99.90
42979;DHT22;28616;44.746;19.678;2022-08-21T14:34:00;21.60;99.90
42979;DHT22;28616;44.746;19.678;2022-08-21T14:36:26;21.60;99.90
42979;DHT22;28616;44.746;19.678;2022-08-21T14:38:53;21.70;99.90
42979;DHT22;28616;44.746;19.678;2022-08-21T14:41:24;21.70;99.90
42979;DHT22;28616;44.746;19.678;2022-08-21T14:43:52;21.70;99.90
42979;DHT22;28616;44.746;19.678;2022-08-21T14:46:24;21.60;99.90
42979;DHT22;28616;44.746;19.678;2022-08-21T14:48:50;21.60;99.90
42979;DHT22;28616;44.746;19.678;2022-08-21T14:51:17;21.50;99.90
42979;DHT22;28616;44.746;19.678;2022-08-21T14:53:43;21.50;99.90
42979;DHT22;28616;44.746;19.678;2022-08-21T14:56:10;21.40;99.90
42979;DHT22;28616;44.746;19.678;2022-08-21T14:58:40;21.30;99.90
42979;DHT22;28616;44.746;19.678;2022-08-21T15:01:08;21.30;99.90
42979;DHT22;28616;44.746;19.678;2022-08-21T15:03:35;21.30;99.90
42979;DHT22;28616;44.746;19.678;2022-08-21T15:06:01;21.30;99.90
42979;DHT22;28616;44.746;19.678;2022-08-21T15:08:27;21.30;99.90
42979;DHT22;28616;44.746;19.678;2022-08-21T15:10:54;21.30;99.90
42979;DHT22;28616;44.746;19.678;2022-08-21T15:13:20;21.30;99.90
42979;DHT22;28616;44.746;19.678;2022-08-21T15:15:49;21.30;99.90
42979;DHT22;28616;44.746;19.678;2022-08-21T15:18:15;21.20;99.90
42979;DHT22;28616;44.746;19.678;2022-08-21T15:20:41;21.20;99.90
42979;DHT22;28616;44.746;19.678;2022-08-21T15:23:08;21.20;99.90
42979;DHT22;28616;44.746;19.678;2022-08-21T15:25:35;21.10;99.90
42979;DHT22;28616;44.746;19.678;2022-08-21T15:28:01;21.10;99.90
42979;DHT22;28616;44.746;19.678;2022-08-21T15:30:29;21.10;99.90
42979;DHT22;28616;44.746;19.678;2022-08-21T15:32:56;21.00;99.90
42979;DHT22;28616;44.746;19.678;2022-08-21T15:35:22;21.10;99.90
42979;DHT22;28616;44.746;19.678;2022-08-21T15:37:48;21.10;99.90
42979;DHT22;28616;44.746;19.678;2022-08-21T15:40:15;21.10;99.90
42979;DHT22;28616;44.746;19.678;2022-08-21T15:42:42;21.10;99.90
42979;DHT22;28616;44.746;19.678;2022-08-21T15:45:10;21.10;99.90
42979;DHT22;28616;44.746;19.678;2022-08-21T15:47:37;21.10;99.90
42979;DHT22;28616;44.746;19.678;2022-08-21T15:50:07;21.10;99.90
42979;DHT22;28616;44.746;19.678;2022-08-21T15:52:34;21.10;99.90
42979;DHT22;28616;44.746;19.678;2022-08-21T15:54:59;21.10;99.90
42979;DHT22;28616;44.746;19.678;2022-08-21T15:57:26;21.10;99.90
42979;DHT22;28616;44.746;19.678;2022-08-21T15:59:58;21.10;99.90
42979;DHT22;28616;44.746;19.678;2022-08-21T16:02:36;21.20;99.90
42979;DHT22;28616;44.746;19.678;2022-08-21T16:05:02;21.20;99.90
42979;DHT22;28616;44.746;19.678;2022-08-21T16:07:28;21.10;99.90
42979;DHT22;28616;44.746;19.678;2022-08-21T16:12:28;21.20;99.90
42979;DHT22;28616;44.746;19.678;2022-08-21T16:14:59;21.20;99.90
42979;DHT22;28616;44.746;19.678;2022-08-21T16:17:31;21.20;99.90
42979;DHT22;28616;44.746;19.678;2022-08-21T16:19:58;21.20;99.90
42979;DHT22;28616;44.746;19.678;2022-08-21T16:22:25;21.10;99.90
42979;DHT22;28616;44.746;19.678;2022-08-21T16:24:51;21.10;99.90
42979;DHT22;28616;44.746;19.678;2022-08-21T16:27:17;21.10;99.90
42979;DHT22;28616;44.746;19.678;2022-08-21T16:29:44;21.10;99.90
42979;DHT22;28616;44.746;19.678;2022-08-21T16:32:10;21.10;99.90
42979;DHT22;28616;44.746;19.678;2022-08-21T16:34:41;21.10;99.90
42979;DHT22;28616;44.746;19.678;2022-08-21T16:37:07;21.10;99.90
42979;DHT22;28616;44.746;19.678;2022-08-21T16:39:33;21.10;99.90
42979;DHT22;28616;44.746;19.678;2022-08-21T16:41:59;21.10;99.90
42979;DHT22;28616;44.746;19.678;2022-08-21T16:44:25;21.10;99.90
42979;DHT22;28616;44.746;19.678;2022-08-21T16:46:51;21.10;99.90
42979;DHT22;28616;44.746;19.678;2022-08-21T16:49:17;21.10;99.90
42979;DHT22;28616;44.746;19.678;2022-08-21T16:51:43;21.10;99.90
42979;DHT22;28616;44.746;19.678;2022-08-21T16:54:09;21.10;99.90
42979;DHT22;28616;44.746;19.678;2022-08-21T16:56:35;21.00;99.90
42979;DHT22;28616;44.746;19.678;2022-08-21T16:59:03;21.00;99.90
42979;DHT22;28616;44.746;19.678;2022-08-21T17:01:31;21.00;99.90
42979;DHT22;28616;44.746;19.678;2022-08-21T17:03:58;21.00;99.90
42979;DHT22;28616;44.746;19.678;2022-08-21T17:06:24;21.00;99.90